sensor_id;sensor_type;location;lat;lon;timestamp;P1;durP1;ratioP1;P2;durP2;ratioP2
11541;SDS011;5827;49.482;7.716;2022-11-25T00:00:52;23.17;;;15.47;;
11541;SDS011;5827;49.482;7.716;2022-11-25T00:02:53;27.27;;;16.40;;
11541;SDS011;5827;49.482;7.716;2022-11-25T00:04:55;25.83;;;15.10;;
11541;SDS011;5827;49.482;7.716;2022-11-25T00:06:57;26.70;;;15.60;;
11541;SDS011;5827;49.482;7.716;2022-11-25T00:09:00;26.43;;;16.03;;
11541;SDS011;5827;49.482;7.716;2022-11-25T00:11:03;25.93;;;14.83;;
11541;SDS011;5827;49.482;7.716;2022-11-25T00:13:05;24.93;;;14.03;;
11541;SDS011;5827;49.482;7.716;2022-11-25T00:15:07;20.03;;;13.57;;
11541;SDS011;5827;49.482;7.716;2022-11-25T00:17:09;23.80;;;13.40;;
11541;SDS011;5827;49.482;7.716;2022-11-25T00:19:11;20.27;;;12.97;;
11541;SDS011;5827;49.482;7.716;2022-11-25T00:21:13;22.63;;;13.33;;
11541;SDS011;5827;49.482;7.716;2022-11-25T00:23:18;24.33;;;13.20;;
11541;SDS011;5827;49.482;7.716;2022-11-25T00:25:19;20.03;;;12.67;;
11541;SDS011;5827;49.482;7.716;2022-11-25T00:27:21;19.30;;;12.27;;
11541;SDS011;5827;49.482;7.716;2022-11-25T00:29:22;24.47;;;13.17;;
11541;SDS011;5827;49.482;7.716;2022-11-25T00:31:24;21.97;;;12.77;;
11541;SDS011;5827;49.482;7.716;2022-11-25T00:33:27;21.60;;;13.27;;
11541;SDS011;5827;49.482;7.716;2022-11-25T00:35:29;22.33;;;12.47;;
11541;SDS011;5827;49.482;7.716;2022-11-25T00:37:30;18.60;;;11.60;;
11541;SDS011;5827;49.482;7.716;2022-11-25T00:39:33;20.70;;;12.17;;
11541;SDS011;5827;49.482;7.716;2022-11-25T00:41:35;23.27;;;12.90;;
11541;SDS011;5827;49.482;7.716;2022-11-25T00:43:54;19.10;;;11.97;;
11541;SDS011;5827;49.482;7.716;2022-11-25T00:46:13;18.40;;;12.33;;
11541;SDS011;5827;49.482;7.716;2022-11-25T00:48:15;18.67;;;11.63;;
11541;SDS011;5827;49.482;7.716;2022-11-25T00:50:17;18.73;;;11.73;;
11541;SDS011;5827;49.482;7.716;2022-11-25T00:52:19;16.77;;;10.73;;
11541;SDS011;5827;49.482;7.716;2022-11-25T00:54:23;17.90;;;11.33;;
11541;SDS011;5827;49.482;7.716;2022-11-25T00:56:26;18.20;;;11.93;;
11541;SDS011;5827;49.482;7.716;2022-11-25T00:58:27;20.53;;;12.23;;
11541;SDS011;5827;49.482;7.716;2022-11-25T01:00:28;17.47;;;11.77;;
11541;SDS011;5827;49.482;7.716;2022-11-25T01:02:29;20.37;;;10.90;;
11541;SDS011;5827;49.482;7.716;2022-11-25T01:04:31;18.37;;;11.20;;
11541;SDS011;5827;49.482;7.716;2022-11-25T01:06:33;16.00;;;11.10;;
11541;SDS011;5827;49.482;7.716;2022-11-25T01:08:36;19.47;;;11.53;;
11541;SDS011;5827;49.482;7.716;2022-11-25T01:10:39;15.53;;;9.23;;
11541;SDS011;5827;49.482;7.716;2022-11-25T01:12:41;19.37;;;9.93;;
11541;SDS011;5827;49.482;7.716;2022-11-25T01:14:47;18.27;;;11.23;;
11541;SDS011;5827;49.482;7.716;2022-11-25T01:16:48;17.97;;;11.37;;
11541;SDS011;5827;49.482;7.716;2022-11-25T01:18:50;16.70;;;10.50;;
11541;SDS011;5827;49.482;7.716;2022-11-25T01:20:52;17.57;;;11.00;;
11541;SDS011;5827;49.482;7.716;2022-11-25T01:22:54;18.17;;;11.63;;
11541;SDS011;5827;49.482;7.716;2022-11-25T01:24:55;18.20;;;11.53;;
11541;SDS011;5827;49.482;7.716;2022-11-25T01:26:57;17.10;;;11.80;;
11541;SDS011;5827;49.482;7.716;2022-11-25T01:29:00;20.60;;;11.50;;
11541;SDS011;5827;49.482;7.716;2022-11-25T01:31:04;19.50;;;10.70;;
11541;SDS011;5827;49.482;7.716;2022-11-25T01:33:06;17.80;;;11.67;;
11541;SDS011;5827;49.482;7.716;2022-11-25T01:35:08;19.47;;;12.27;;
11541;SDS011;5827;49.482;7.716;2022-11-25T01:37:10;19.17;;;10.87;;
11541;SDS011;5827;49.482;7.716;2022-11-25T01:39:12;19.10;;;11.47;;
11541;SDS011;5827;49.482;7.716;2022-11-25T01:41:17;17.53;;;11.33;;
11541;SDS011;5827;49.482;7.716;2022-11-25T01:43:20;13.30;;;10.27;;
11541;SDS011;5827;49.482;7.716;2022-11-25T01:45:32;19.37;;;10.33;;
11541;SDS011;5827;49.482;7.716;2022-11-25T01:47:37;18.00;;;10.43;;
11541;SDS011;5827;49.482;7.716;2022-11-25T01:49:39;15.30;;;10.50;;
11541;SDS011;5827;49.482;7.716;2022-11-25T01:51:45;13.97;;;9.63;;
11541;SDS011;5827;49.482;7.716;2022-11-25T01:53:50;15.17;;;10.23;;
11541;SDS011;5827;49.482;7.716;2022-11-25T01:55:57;17.97;;;10.43;;
11541;SDS011;5827;49.482;7.716;2022-11-25T01:58:03;15.67;;;10.70;;
11541;SDS011;5827;49.482;7.716;2022-11-25T02:00:07;15.30;;;9.63;;
11541;SDS011;5827;49.482;7.716;2022-11-25T02:02:11;15.13;;;10.13;;
11541;SDS011;5827;49.482;7.716;2022-11-25T02:04:15;14.57;;;9.03;;
11541;SDS011;5827;49.482;7.716;2022-11-25T02:06:20;14.77;;;9.33;;
11541;SDS011;5827;49.482;7.716;2022-11-25T02:08:23;15.60;;;9.77;;
11541;SDS011;5827;49.482;7.716;2022-11-25T02:10:28;15.87;;;9.53;;
11541;SDS011;5827;49.482;7.716;2022-11-25T02:12:32;16.47;;;10.47;;
11541;SDS011;5827;49.482;7.716;2022-11-25T02:14:35;14.93;;;10.33;;
11541;SDS011;5827;49.482;7.716;2022-11-25T02:16:37;18.50;;;11.23;;
11541;SDS011;5827;49.482;7.716;2022-11-25T02:18:40;17.10;;;10.50;;
11541;SDS011;5827;49.482;7.716;2022-11-25T02:20:42;18.80;;;10.23;;
11541;SDS011;5827;49.482;7.716;2022-11-25T02:22:46;19.90;;;10.50;;
11541;SDS011;5827;49.482;7.716;2022-11-25T02:24:55;17.73;;;10.20;;
11541;SDS011;5827;49.482;7.716;2022-11-25T02:27:03;18.87;;;10.23;;
11541;SDS011;5827;49.482;7.716;2022-11-25T02:29:05;17.90;;;11.17;;
11541;SDS011;5827;49.482;7.716;2022-11-25T02:31:07;16.70;;;10.20;;
11541;SDS011;5827;49.482;7.716;2022-11-25T02:33:09;17.37;;;11.27;;
11541;SDS011;5827;49.482;7.716;2022-11-25T02:37:35;16.67;;;9.63;;
11541;SDS011;5827;49.482;7.716;2022-11-25T02:39:36;16.10;;;10.47;;
11541;SDS011;5827;49.482;7.716;2022-11-25T02:41:39;17.37;;;11.23;;
11541;SDS011;5827;49.482;7.716;2022-11-25T02:43:44;14.80;;;10.03;;
11541;SDS011;5827;49.482;7.716;2022-11-25T02:45:55;17.47;;;9.87;;
11541;SDS011;5827;49.482;7.716;2022-11-25T02:47:59;16.47;;;10.53;;
11541;SDS011;5827;49.482;7.716;2022-11-25T02:50:00;16.27;;;11.43;;
11541;SDS011;5827;49.482;7.716;2022-11-25T02:52:02;15.40;;;10.63;;
11541;SDS011;5827;49.482;7.716;2022-11-25T02:54:04;14.10;;;10.27;;
11541;SDS011;5827;49.482;7.716;2022-11-25T02:56:07;12.03;;;9.37;;
11541;SDS011;5827;49.482;7.716;2022-11-25T02:58:09;18.27;;;10.40;;
11541;SDS011;5827;49.482;7.716;2022-11-25T03:00:13;16.07;;;9.87;;
11541;SDS011;5827;49.482;7.716;2022-11-25T03:02:16;15.63;;;9.73;;
11541;SDS011;5827;49.482;7.716;2022-11-25T03:04:17;13.90;;;9.33;;
11541;SDS011;5827;49.482;7.716;2022-11-25T03:06:19;16.03;;;9.83;;
11541;SDS011;5827;49.482;7.716;2022-11-25T03:08:21;14.53;;;8.90;;
11541;SDS011;5827;49.482;7.716;2022-11-25T03:10:23;14.53;;;9.60;;
11541;SDS011;5827;49.482;7.716;2022-11-25T03:12:25;15.27;;;9.10;;
11541;SDS011;5827;49.482;7.716;2022-11-25T03:14:27;18.03;;;9.50;;
11541;SDS011;5827;49.482;7.716;2022-11-25T03:16:30;18.57;;;9.87;;
11541;SDS011;5827;49.482;7.716;2022-11-25T03:18:34;17.47;;;9.20;;
11541;SDS011;5827;49.482;7.716;2022-11-25T03:20:35;17.13;;;8.87;;
11541;SDS011;5827;49.482;7.716;2022-11-25T03:22:38;14.93;;;8.87;;
11541;SDS011;5827;49.482;7.716;2022-11-25T03:24:39;16.40;;;10.03;;
11541;SDS011;5827;49.482;7.716;2022-11-25T03:26:41;20.13;;;11.17;;
11541;SDS011;5827;49.482;7.716;2022-11-25T03:28:42;22.40;;;11.27;;
11541;SDS011;5827;49.482;7.716;2022-11-25T03:30:44;22.80;;;10.97;;
11541;SDS011;5827;49.482;7.716;2022-11-25T03:32:47;15.27;;;9.57;;
11541;SDS011;5827;49.482;7.716;2022-11-25T03:34:49;17.90;;;9.30;;
11541;SDS011;5827;49.482;7.716;2022-11-25T03:36:50;14.57;;;8.37;;
11541;SDS011;5827;49.482;7.716;2022-11-25T03:38:52;17.13;;;9.63;;
11541;SDS011;5827;49.482;7.716;2022-11-25T03:40:53;14.27;;;9.63;;
11541;SDS011;5827;49.482;7.716;2022-11-25T03:42:55;15.53;;;10.20;;
11541;SDS011;5827;49.482;7.716;2022-11-25T03:44:57;18.33;;;9.67;;
11541;SDS011;5827;49.482;7.716;2022-11-25T03:46:58;16.83;;;9.67;;
11541;SDS011;5827;49.482;7.716;2022-11-25T03:49:01;13.63;;;8.57;;
11541;SDS011;5827;49.482;7.716;2022-11-25T03:51:03;15.00;;;7.33;;
11541;SDS011;5827;49.482;7.716;2022-11-25T03:53:04;12.30;;;6.40;;
11541;SDS011;5827;49.482;7.716;2022-11-25T03:55:06;10.90;;;6.63;;
11541;SDS011;5827;49.482;7.716;2022-11-25T03:57:08;12.43;;;7.23;;
11541;SDS011;5827;49.482;7.716;2022-11-25T03:59:10;11.30;;;8.83;;
11541;SDS011;5827;49.482;7.716;2022-11-25T04:01:11;14.20;;;8.43;;
11541;SDS011;5827;49.482;7.716;2022-11-25T04:03:13;13.87;;;7.20;;
11541;SDS011;5827;49.482;7.716;2022-11-25T04:05:16;10.70;;;6.57;;
11541;SDS011;5827;49.482;7.716;2022-11-25T04:07:17;12.83;;;7.57;;
11541;SDS011;5827;49.482;7.716;2022-11-25T04:09:19;18.60;;;9.47;;
11541;SDS011;5827;49.482;7.716;2022-11-25T04:11:21;13.73;;;9.43;;
11541;SDS011;5827;49.482;7.716;2022-11-25T04:13:42;12.80;;;8.43;;
11541;SDS011;5827;49.482;7.716;2022-11-25T04:15:44;13.47;;;9.57;;
11541;SDS011;5827;49.482;7.716;2022-11-25T04:17:46;14.83;;;10.77;;
11541;SDS011;5827;49.482;7.716;2022-11-25T04:19:47;13.63;;;9.93;;
11541;SDS011;5827;49.482;7.716;2022-11-25T04:21:50;14.90;;;9.20;;
11541;SDS011;5827;49.482;7.716;2022-11-25T04:23:52;13.67;;;8.37;;
11541;SDS011;5827;49.482;7.716;2022-11-25T04:25:53;18.83;;;9.50;;
11541;SDS011;5827;49.482;7.716;2022-11-25T04:27:55;18.77;;;10.87;;
11541;SDS011;5827;49.482;7.716;2022-11-25T04:29:56;18.30;;;10.60;;
11541;SDS011;5827;49.482;7.716;2022-11-25T04:31:58;17.47;;;11.77;;
11541;SDS011;5827;49.482;7.716;2022-11-25T04:34:00;14.87;;;10.03;;
11541;SDS011;5827;49.482;7.716;2022-11-25T04:36:01;15.60;;;9.40;;
11541;SDS011;5827;49.482;7.716;2022-11-25T04:38:05;15.13;;;9.73;;
11541;SDS011;5827;49.482;7.716;2022-11-25T04:40:07;11.30;;;9.00;;
11541;SDS011;5827;49.482;7.716;2022-11-25T04:42:09;11.70;;;7.23;;
11541;SDS011;5827;49.482;7.716;2022-11-25T04:44:25;14.57;;;7.73;;
11541;SDS011;5827;49.482;7.716;2022-11-25T04:46:29;15.57;;;8.03;;
11541;SDS011;5827;49.482;7.716;2022-11-25T04:48:34;15.40;;;7.60;;
11541;SDS011;5827;49.482;7.716;2022-11-25T04:50:36;13.17;;;7.50;;
11541;SDS011;5827;49.482;7.716;2022-11-25T04:52:37;11.20;;;7.43;;
11541;SDS011;5827;49.482;7.716;2022-11-25T04:54:40;17.00;;;7.90;;
11541;SDS011;5827;49.482;7.716;2022-11-25T04:56:42;12.50;;;7.63;;
11541;SDS011;5827;49.482;7.716;2022-11-25T04:58:43;13.20;;;7.90;;
11541;SDS011;5827;49.482;7.716;2022-11-25T05:01:03;12.33;;;7.50;;
11541;SDS011;5827;49.482;7.716;2022-11-25T05:03:05;13.77;;;8.07;;
11541;SDS011;5827;49.482;7.716;2022-11-25T05:05:07;13.00;;;6.77;;
11541;SDS011;5827;49.482;7.716;2022-11-25T05:07:09;16.83;;;7.63;;
11541;SDS011;5827;49.482;7.716;2022-11-25T05:09:11;13.17;;;8.03;;
11541;SDS011;5827;49.482;7.716;2022-11-25T05:11:14;11.97;;;7.70;;
11541;SDS011;5827;49.482;7.716;2022-11-25T05:13:15;10.00;;;6.67;;
11541;SDS011;5827;49.482;7.716;2022-11-25T05:15:17;11.47;;;7.50;;
11541;SDS011;5827;49.482;7.716;2022-11-25T05:17:19;13.07;;;7.20;;
11541;SDS011;5827;49.482;7.716;2022-11-25T05:19:22;14.27;;;7.13;;
11541;SDS011;5827;49.482;7.716;2022-11-25T05:21:24;12.37;;;7.20;;
11541;SDS011;5827;49.482;7.716;2022-11-25T05:23:25;12.47;;;6.90;;
11541;SDS011;5827;49.482;7.716;2022-11-25T05:25:27;14.43;;;7.23;;
11541;SDS011;5827;49.482;7.716;2022-11-25T05:27:30;14.40;;;7.20;;
11541;SDS011;5827;49.482;7.716;2022-11-25T05:29:32;12.00;;;6.27;;
11541;SDS011;5827;49.482;7.716;2022-11-25T05:31:33;9.60;;;6.83;;
11541;SDS011;5827;49.482;7.716;2022-11-25T05:33:35;39.70;;;22.13;;
11541;SDS011;5827;49.482;7.716;2022-11-25T05:35:37;38.67;;;20.23;;
11541;SDS011;5827;49.482;7.716;2022-11-25T05:37:38;32.03;;;18.27;;
11541;SDS011;5827;49.482;7.716;2022-11-25T05:39:40;27.30;;;15.00;;
11541;SDS011;5827;49.482;7.716;2022-11-25T05:41:42;21.53;;;14.60;;
11541;SDS011;5827;49.482;7.716;2022-11-25T05:43:45;18.47;;;10.10;;
11541;SDS011;5827;49.482;7.716;2022-11-25T05:45:46;19.67;;;10.43;;
11541;SDS011;5827;49.482;7.716;2022-11-25T05:47:48;13.47;;;9.20;;
11541;SDS011;5827;49.482;7.716;2022-11-25T05:49:52;12.73;;;8.60;;
11541;SDS011;5827;49.482;7.716;2022-11-25T05:51:54;13.37;;;8.47;;
11541;SDS011;5827;49.482;7.716;2022-11-25T05:53:56;15.20;;;8.53;;
11541;SDS011;5827;49.482;7.716;2022-11-25T05:55:58;12.47;;;7.93;;
11541;SDS011;5827;49.482;7.716;2022-11-25T05:58:01;14.07;;;8.60;;
11541;SDS011;5827;49.482;7.716;2022-11-25T06:00:07;16.07;;;8.97;;
11541;SDS011;5827;49.482;7.716;2022-11-25T06:02:10;9.83;;;8.07;;
11541;SDS011;5827;49.482;7.716;2022-11-25T06:04:11;13.63;;;8.90;;
11541;SDS011;5827;49.482;7.716;2022-11-25T06:06:13;15.87;;;9.53;;
11541;SDS011;5827;49.482;7.716;2022-11-25T06:08:15;14.80;;;8.67;;
11541;SDS011;5827;49.482;7.716;2022-11-25T06:10:17;12.17;;;8.40;;
11541;SDS011;5827;49.482;7.716;2022-11-25T06:12:19;11.87;;;8.97;;
11541;SDS011;5827;49.482;7.716;2022-11-25T06:14:21;15.10;;;8.60;;
11541;SDS011;5827;49.482;7.716;2022-11-25T06:16:24;12.37;;;7.83;;
11541;SDS011;5827;49.482;7.716;2022-11-25T06:18:26;11.10;;;7.80;;
11541;SDS011;5827;49.482;7.716;2022-11-25T06:20:27;12.00;;;7.87;;
11541;SDS011;5827;49.482;7.716;2022-11-25T06:22:29;10.53;;;7.13;;
11541;SDS011;5827;49.482;7.716;2022-11-25T06:24:31;12.47;;;6.27;;
11541;SDS011;5827;49.482;7.716;2022-11-25T06:26:32;13.27;;;6.57;;
11541;SDS011;5827;49.482;7.716;2022-11-25T06:28:34;10.27;;;6.23;;
11541;SDS011;5827;49.482;7.716;2022-11-25T06:30:36;14.07;;;8.27;;
11541;SDS011;5827;49.482;7.716;2022-11-25T06:32:39;14.33;;;8.27;;
11541;SDS011;5827;49.482;7.716;2022-11-25T06:34:41;11.30;;;7.70;;
11541;SDS011;5827;49.482;7.716;2022-11-25T06:36:42;14.70;;;8.03;;
11541;SDS011;5827;49.482;7.716;2022-11-25T06:38:44;11.77;;;7.07;;
11541;SDS011;5827;49.482;7.716;2022-11-25T06:40:47;13.73;;;7.37;;
11541;SDS011;5827;49.482;7.716;2022-11-25T06:42:48;11.93;;;7.17;;
11541;SDS011;5827;49.482;7.716;2022-11-25T06:44:50;12.37;;;7.73;;
11541;SDS011;5827;49.482;7.716;2022-11-25T06:46:51;13.77;;;8.50;;
11541;SDS011;5827;49.482;7.716;2022-11-25T06:48:54;9.87;;;6.53;;
11541;SDS011;5827;49.482;7.716;2022-11-25T06:50:59;11.40;;;6.67;;
11541;SDS011;5827;49.482;7.716;2022-11-25T06:53:02;13.23;;;7.33;;
11541;SDS011;5827;49.482;7.716;2022-11-25T06:55:04;12.63;;;7.37;;
11541;SDS011;5827;49.482;7.716;2022-11-25T06:57:06;11.37;;;7.87;;
11541;SDS011;5827;49.482;7.716;2022-11-25T06:59:07;13.50;;;8.53;;
11541;SDS011;5827;49.482;7.716;2022-11-25T07:01:10;11.57;;;7.23;;
11541;SDS011;5827;49.482;7.716;2022-11-25T07:03:14;11.90;;;8.37;;
11541;SDS011;5827;49.482;7.716;2022-11-25T07:05:17;15.40;;;8.57;;
11541;SDS011;5827;49.482;7.716;2022-11-25T07:07:18;13.83;;;7.90;;
11541;SDS011;5827;49.482;7.716;2022-11-25T07:09:20;10.77;;;7.83;;
11541;SDS011;5827;49.482;7.716;2022-11-25T07:11:25;14.80;;;7.77;;
11541;SDS011;5827;49.482;7.716;2022-11-25T07:13:27;16.67;;;8.20;;
11541;SDS011;5827;49.482;7.716;2022-11-25T07:15:30;11.60;;;7.90;;
11541;SDS011;5827;49.482;7.716;2022-11-25T07:17:32;12.73;;;7.60;;
11541;SDS011;5827;49.482;7.716;2022-11-25T07:19:34;13.93;;;7.57;;
11541;SDS011;5827;49.482;7.716;2022-11-25T07:21:37;17.97;;;8.77;;
11541;SDS011;5827;49.482;7.716;2022-11-25T07:23:40;12.83;;;7.80;;
11541;SDS011;5827;49.482;7.716;2022-11-25T07:25:42;9.87;;;7.57;;
11541;SDS011;5827;49.482;7.716;2022-11-25T07:27:44;10.30;;;6.73;;
11541;SDS011;5827;49.482;7.716;2022-11-25T07:29:46;10.13;;;6.93;;
11541;SDS011;5827;49.482;7.716;2022-11-25T07:31:48;9.17;;;7.40;;
11541;SDS011;5827;49.482;7.716;2022-11-25T07:33:50;13.20;;;7.60;;
11541;SDS011;5827;49.482;7.716;2022-11-25T07:35:53;13.23;;;8.00;;
11541;SDS011;5827;49.482;7.716;2022-11-25T07:37:56;13.20;;;8.43;;
11541;SDS011;5827;49.482;7.716;2022-11-25T07:39:58;11.77;;;7.70;;
11541;SDS011;5827;49.482;7.716;2022-11-25T07:42:02;12.77;;;7.40;;
11541;SDS011;5827;49.482;7.716;2022-11-25T07:44:04;14.20;;;8.07;;
11541;SDS011;5827;49.482;7.716;2022-11-25T07:46:08;10.37;;;7.40;;
11541;SDS011;5827;49.482;7.716;2022-11-25T07:48:11;10.70;;;7.10;;
11541;SDS011;5827;49.482;7.716;2022-11-25T07:50:13;10.23;;;7.73;;
11541;SDS011;5827;49.482;7.716;2022-11-25T07:52:15;12.87;;;7.33;;
11541;SDS011;5827;49.482;7.716;2022-11-25T07:54:18;10.27;;;7.17;;
11541;SDS011;5827;49.482;7.716;2022-11-25T07:56:21;10.80;;;7.60;;
11541;SDS011;5827;49.482;7.716;2022-11-25T07:58:25;16.93;;;8.83;;
11541;SDS011;5827;49.482;7.716;2022-11-25T08:00:27;11.67;;;8.43;;
11541;SDS011;5827;49.482;7.716;2022-11-25T08:02:29;18.07;;;11.43;;
11541;SDS011;5827;49.482;7.716;2022-11-25T08:04:33;13.80;;;11.57;;
11541;SDS011;5827;49.482;7.716;2022-11-25T08:06:36;13.80;;;10.97;;
11541;SDS011;5827;49.482;7.716;2022-11-25T08:08:40;15.27;;;11.27;;
11541;SDS011;5827;49.482;7.716;2022-11-25T08:10:43;16.80;;;11.53;;
11541;SDS011;5827;49.482;7.716;2022-11-25T08:12:45;13.27;;;11.13;;
11541;SDS011;5827;49.482;7.716;2022-11-25T08:14:47;14.63;;;10.53;;
11541;SDS011;5827;49.482;7.716;2022-11-25T08:16:48;16.03;;;9.67;;
11541;SDS011;5827;49.482;7.716;2022-11-25T08:18:50;14.90;;;8.60;;
11541;SDS011;5827;49.482;7.716;2022-11-25T08:20:52;15.80;;;8.70;;
11541;SDS011;5827;49.482;7.716;2022-11-25T08:22:59;12.90;;;8.40;;
11541;SDS011;5827;49.482;7.716;2022-11-25T08:25:00;13.07;;;8.70;;
11541;SDS011;5827;49.482;7.716;2022-11-25T08:27:03;16.33;;;9.03;;
11541;SDS011;5827;49.482;7.716;2022-11-25T08:29:05;16.87;;;9.73;;
11541;SDS011;5827;49.482;7.716;2022-11-25T08:31:09;15.43;;;9.93;;
11541;SDS011;5827;49.482;7.716;2022-11-25T08:33:12;15.20;;;9.73;;
11541;SDS011;5827;49.482;7.716;2022-11-25T08:35:13;17.60;;;9.33;;
11541;SDS011;5827;49.482;7.716;2022-11-25T08:37:15;18.67;;;11.00;;
11541;SDS011;5827;49.482;7.716;2022-11-25T08:39:17;17.73;;;10.40;;
11541;SDS011;5827;49.482;7.716;2022-11-25T08:41:20;20.33;;;10.53;;
11541;SDS011;5827;49.482;7.716;2022-11-25T08:43:26;18.43;;;10.40;;
11541;SDS011;5827;49.482;7.716;2022-11-25T08:45:28;15.93;;;9.77;;
11541;SDS011;5827;49.482;7.716;2022-11-25T08:47:30;14.43;;;8.87;;
11541;SDS011;5827;49.482;7.716;2022-11-25T08:49:31;17.17;;;8.83;;
11541;SDS011;5827;49.482;7.716;2022-11-25T08:51:34;11.37;;;7.13;;
11541;SDS011;5827;49.482;7.716;2022-11-25T08:53:37;13.77;;;8.37;;
11541;SDS011;5827;49.482;7.716;2022-11-25T08:55:39;11.07;;;7.30;;
11541;SDS011;5827;49.482;7.716;2022-11-25T08:57:42;12.13;;;7.43;;
11541;SDS011;5827;49.482;7.716;2022-11-25T08:59:45;13.70;;;8.27;;
11541;SDS011;5827;49.482;7.716;2022-11-25T09:01:47;10.93;;;7.80;;
11541;SDS011;5827;49.482;7.716;2022-11-25T09:03:50;16.43;;;7.97;;
11541;SDS011;5827;49.482;7.716;2022-11-25T09:05:53;13.43;;;6.87;;
11541;SDS011;5827;49.482;7.716;2022-11-25T09:07:54;11.03;;;5.77;;
11541;SDS011;5827;49.482;7.716;2022-11-25T09:09:56;12.87;;;6.60;;
11541;SDS011;5827;49.482;7.716;2022-11-25T09:11:57;15.70;;;7.90;;
11541;SDS011;5827;49.482;7.716;2022-11-25T09:13:59;17.40;;;9.37;;
11541;SDS011;5827;49.482;7.716;2022-11-25T09:16:02;13.70;;;9.10;;
11541;SDS011;5827;49.482;7.716;2022-11-25T09:18:05;13.67;;;7.50;;
11541;SDS011;5827;49.482;7.716;2022-11-25T09:20:08;12.67;;;7.70;;
11541;SDS011;5827;49.482;7.716;2022-11-25T09:22:10;10.93;;;6.30;;
11541;SDS011;5827;49.482;7.716;2022-11-25T09:24:12;11.43;;;6.30;;
11541;SDS011;5827;49.482;7.716;2022-11-25T09:26:17;10.53;;;6.50;;
11541;SDS011;5827;49.482;7.716;2022-11-25T09:28:22;13.60;;;6.40;;
11541;SDS011;5827;49.482;7.716;2022-11-25T09:30:27;10.17;;;6.37;;
11541;SDS011;5827;49.482;7.716;2022-11-25T09:32:30;10.03;;;6.67;;
11541;SDS011;5827;49.482;7.716;2022-11-25T09:34:31;13.20;;;6.50;;
11541;SDS011;5827;49.482;7.716;2022-11-25T09:36:33;15.33;;;6.83;;
11541;SDS011;5827;49.482;7.716;2022-11-25T09:38:34;10.33;;;6.00;;
11541;SDS011;5827;49.482;7.716;2022-11-25T09:40:39;13.77;;;6.97;;
11541;SDS011;5827;49.482;7.716;2022-11-25T09:42:48;11.87;;;6.50;;
11541;SDS011;5827;49.482;7.716;2022-11-25T09:45:15;11.60;;;6.00;;
11541;SDS011;5827;49.482;7.716;2022-11-25T09:47:40;8.80;;;5.63;;
11541;SDS011;5827;49.482;7.716;2022-11-25T09:49:56;11.93;;;6.10;;
11541;SDS011;5827;49.482;7.716;2022-11-25T09:52:06;11.47;;;5.40;;
11541;SDS011;5827;49.482;7.716;2022-11-25T09:54:15;18.33;;;6.63;;
11541;SDS011;5827;49.482;7.716;2022-11-25T09:56:24;15.17;;;6.20;;
11541;SDS011;5827;49.482;7.716;2022-11-25T09:58:32;9.77;;;6.30;;
11541;SDS011;5827;49.482;7.716;2022-11-25T10:00:37;14.60;;;8.50;;
11541;SDS011;5827;49.482;7.716;2022-11-25T10:02:43;19.40;;;8.63;;
11541;SDS011;5827;49.482;7.716;2022-11-25T10:04:52;15.43;;;8.50;;
11541;SDS011;5827;49.482;7.716;2022-11-25T10:07:00;17.33;;;7.27;;
11541;SDS011;5827;49.482;7.716;2022-11-25T10:09:08;14.27;;;7.57;;
11541;SDS011;5827;49.482;7.716;2022-11-25T10:11:16;14.47;;;7.60;;
11541;SDS011;5827;49.482;7.716;2022-11-25T10:13:28;12.60;;;5.80;;
11541;SDS011;5827;49.482;7.716;2022-11-25T10:15:39;12.93;;;6.70;;
11541;SDS011;5827;49.482;7.716;2022-11-25T10:17:46;14.47;;;7.80;;
11541;SDS011;5827;49.482;7.716;2022-11-25T10:19:52;16.83;;;6.67;;
11541;SDS011;5827;49.482;7.716;2022-11-25T10:22:00;9.83;;;5.93;;
11541;SDS011;5827;49.482;7.716;2022-11-25T10:24:11;12.20;;;5.73;;
11541;SDS011;5827;49.482;7.716;2022-11-25T10:26:15;12.93;;;5.00;;
11541;SDS011;5827;49.482;7.716;2022-11-25T10:28:21;10.67;;;4.53;;
11541;SDS011;5827;49.482;7.716;2022-11-25T10:30:24;8.37;;;5.03;;
11541;SDS011;5827;49.482;7.716;2022-11-25T10:32:29;12.07;;;5.40;;
11541;SDS011;5827;49.482;7.716;2022-11-25T10:34:38;11.47;;;4.90;;
11541;SDS011;5827;49.482;7.716;2022-11-25T10:36:46;12.00;;;5.37;;
11541;SDS011;5827;49.482;7.716;2022-11-25T10:38:53;11.13;;;5.30;;
11541;SDS011;5827;49.482;7.716;2022-11-25T10:40:59;9.57;;;5.13;;
11541;SDS011;5827;49.482;7.716;2022-11-25T10:43:07;13.03;;;5.93;;
11541;SDS011;5827;49.482;7.716;2022-11-25T10:45:12;14.20;;;5.90;;
11541;SDS011;5827;49.482;7.716;2022-11-25T10:47:20;14.63;;;5.47;;
11541;SDS011;5827;49.482;7.716;2022-11-25T10:49:35;10.07;;;5.10;;
11541;SDS011;5827;49.482;7.716;2022-11-25T10:51:46;9.93;;;5.23;;
11541;SDS011;5827;49.482;7.716;2022-11-25T10:54:08;12.57;;;5.23;;
11541;SDS011;5827;49.482;7.716;2022-11-25T10:56:17;10.60;;;5.30;;
11541;SDS011;5827;49.482;7.716;2022-11-25T10:58:21;13.67;;;5.97;;
11541;SDS011;5827;49.482;7.716;2022-11-25T11:00:29;10.80;;;5.27;;
11541;SDS011;5827;49.482;7.716;2022-11-25T11:02:36;12.53;;;5.77;;
11541;SDS011;5827;49.482;7.716;2022-11-25T11:04:48;9.93;;;5.83;;
11541;SDS011;5827;49.482;7.716;2022-11-25T11:06:52;16.77;;;6.37;;
11541;SDS011;5827;49.482;7.716;2022-11-25T11:08:54;15.10;;;6.40;;
11541;SDS011;5827;49.482;7.716;2022-11-25T11:11:12;11.23;;;6.03;;
11541;SDS011;5827;49.482;7.716;2022-11-25T11:13:18;11.53;;;6.30;;
11541;SDS011;5827;49.482;7.716;2022-11-25T11:15:24;11.07;;;6.40;;
11541;SDS011;5827;49.482;7.716;2022-11-25T11:17:31;12.70;;;6.93;;
11541;SDS011;5827;49.482;7.716;2022-11-25T11:19:34;11.37;;;5.93;;
11541;SDS011;5827;49.482;7.716;2022-11-25T11:21:37;14.07;;;6.07;;
11541;SDS011;5827;49.482;7.716;2022-11-25T11:23:46;12.73;;;6.53;;
11541;SDS011;5827;49.482;7.716;2022-11-25T11:25:56;9.93;;;5.40;;
11541;SDS011;5827;49.482;7.716;2022-11-25T11:28:00;10.33;;;5.20;;
11541;SDS011;5827;49.482;7.716;2022-11-25T11:30:07;13.53;;;5.90;;
11541;SDS011;5827;49.482;7.716;2022-11-25T11:32:17;12.53;;;5.80;;
11541;SDS011;5827;49.482;7.716;2022-11-25T11:34:28;12.80;;;5.77;;
11541;SDS011;5827;49.482;7.716;2022-11-25T11:36:52;10.23;;;5.37;;
11541;SDS011;5827;49.482;7.716;2022-11-25T11:39:14;11.97;;;5.30;;
11541;SDS011;5827;49.482;7.716;2022-11-25T11:41:33;15.97;;;6.33;;
11541;SDS011;5827;49.482;7.716;2022-11-25T11:43:46;10.70;;;5.13;;
11541;SDS011;5827;49.482;7.716;2022-11-25T11:46:04;12.80;;;4.57;;
11541;SDS011;5827;49.482;7.716;2022-11-25T11:48:19;11.23;;;4.37;;
11541;SDS011;5827;49.482;7.716;2022-11-25T11:50:26;9.10;;;4.53;;
11541;SDS011;5827;49.482;7.716;2022-11-25T11:52:36;9.57;;;4.40;;
11541;SDS011;5827;49.482;7.716;2022-11-25T11:54:48;10.97;;;4.70;;
11541;SDS011;5827;49.482;7.716;2022-11-25T11:56:55;8.63;;;4.20;;
11541;SDS011;5827;49.482;7.716;2022-11-25T11:59:04;6.93;;;3.80;;
11541;SDS011;5827;49.482;7.716;2022-11-25T12:01:29;7.97;;;3.70;;
11541;SDS011;5827;49.482;7.716;2022-11-25T12:03:39;7.47;;;4.13;;
11541;SDS011;5827;49.482;7.716;2022-11-25T12:05:50;8.97;;;4.30;;
11541;SDS011;5827;49.482;7.716;2022-11-25T12:07:58;7.93;;;3.80;;
11541;SDS011;5827;49.482;7.716;2022-11-25T12:10:08;6.03;;;3.40;;
11541;SDS011;5827;49.482;7.716;2022-11-25T12:12:17;10.37;;;3.40;;
11541;SDS011;5827;49.482;7.716;2022-11-25T12:14:25;6.93;;;3.10;;
11541;SDS011;5827;49.482;7.716;2022-11-25T12:16:32;9.57;;;3.47;;
11541;SDS011;5827;49.482;7.716;2022-11-25T12:18:41;6.00;;;2.87;;
11541;SDS011;5827;49.482;7.716;2022-11-25T12:20:49;7.80;;;3.40;;
11541;SDS011;5827;49.482;7.716;2022-11-25T12:22:57;8.13;;;3.00;;
11541;SDS011;5827;49.482;7.716;2022-11-25T12:25:05;9.40;;;3.13;;
11541;SDS011;5827;49.482;7.716;2022-11-25T12:27:14;8.30;;;2.90;;
11541;SDS011;5827;49.482;7.716;2022-11-25T12:29:20;7.23;;;3.20;;